sensor_id;sensor_type;location;lat;lon;timestamp;temperature;humidity
9057;DHT22;4563;54.756;9.400;2022-12-07T00:00:02;4.50;75.50
9057;DHT22;4563;54.756;9.400;2022-12-07T00:02:30;4.50;75.50
9057;DHT22;4563;54.756;9.400;2022-12-07T00:04:59;4.50;75.50
9057;DHT22;4563;54.756;9.400;2022-12-07T00:07:25;4.60;75.50
9057;DHT22;4563;54.756;9.400;2022-12-07T00:09:52;4.50;75.50
9057;DHT22;4563;54.756;9.400;2022-12-07T00:12:19;4.50;75.50
9057;DHT22;4563;54.756;9.400;2022-12-07T00:14:46;4.50;75.50
9057;DHT22;4563;54.756;9.400;2022-12-07T00:17:13;4.50;75.50
9057;DHT22;4563;54.756;9.400;2022-12-07T00:19:40;4.50;75.50
9057;DHT22;4563;54.756;9.400;2022-12-07T00:22:08;4.50;75.50
9057;DHT22;4563;54.756;9.400;2022-12-07T00:24:35;4.50;75.50
9057;DHT22;4563;54.756;9.400;2022-12-07T00:27:02;4.50;75.50
9057;DHT22;4563;54.756;9.400;2022-12-07T00:29:29;4.50;75.50
9057;DHT22;4563;54.756;9.400;2022-12-07T00:31:56;4.50;75.60
9057;DHT22;4563;54.756;9.400;2022-12-07T00:34:23;4.50;75.60
9057;DHT22;4563;54.756;9.400;2022-12-07T00:36:50;4.40;75.50
9057;DHT22;4563;54.756;9.400;2022-12-07T00:39:18;4.40;75.50
9057;DHT22;4563;54.756;9.400;2022-12-07T00:41:45;4.40;75.50
9057;DHT22;4563;54.756;9.400;2022-12-07T00:44:12;4.40;75.50
9057;DHT22;4563;54.756;9.400;2022-12-07T00:46:39;4.40;75.50
9057;DHT22;4563;54.756;9.400;2022-12-07T00:49:06;4.30;75.40
9057;DHT22;4563;54.756;9.400;2022-12-07T00:51:32;4.40;75.50
9057;DHT22;4563;54.756;9.400;2022-12-07T00:53:59;4.30;75.50
9057;DHT22;4563;54.756;9.400;2022-12-07T00:56:28;4.30;76.20
9057;DHT22;4563;54.756;9.400;2022-12-07T00:58:57;4.30;75.50
9057;DHT22;4563;54.756;9.400;2022-12-07T01:01:26;4.30;75.50
9057;DHT22;4563;54.756;9.400;2022-12-07T01:03:53;4.30;75.50
9057;DHT22;4563;54.756;9.400;2022-12-07T01:06:21;4.30;75.50
9057;DHT22;4563;54.756;9.400;2022-12-07T01:08:49;4.30;75.60
9057;DHT22;4563;54.756;9.400;2022-12-07T01:11:18;4.20;75.50
9057;DHT22;4563;54.756;9.400;2022-12-07T01:13:48;4.30;75.50
9057;DHT22;4563;54.756;9.400;2022-12-07T01:16:16;4.30;75.60
9057;DHT22;4563;54.756;9.400;2022-12-07T01:18:46;4.30;75.50
9057;DHT22;4563;54.756;9.400;2022-12-07T01:21:14;4.30;75.60
9057;DHT22;4563;54.756;9.400;2022-12-07T01:23:42;4.20;75.50
9057;DHT22;4563;54.756;9.400;2022-12-07T01:26:11;4.20;75.50
9057;DHT22;4563;54.756;9.400;2022-12-07T01:28:38;4.20;75.50
9057;DHT22;4563;54.756;9.400;2022-12-07T01:31:09;4.20;75.60
9057;DHT22;4563;54.756;9.400;2022-12-07T01:33:38;4.20;75.50
9057;DHT22;4563;54.756;9.400;2022-12-07T01:36:07;4.20;75.60
9057;DHT22;4563;54.756;9.400;2022-12-07T01:38:34;4.20;75.50
9057;DHT22;4563;54.756;9.400;2022-12-07T01:41:02;4.20;75.50
9057;DHT22;4563;54.756;9.400;2022-12-07T01:43:30;4.20;75.50
9057;DHT22;4563;54.756;9.400;2022-12-07T01:45:58;4.20;75.50
9057;DHT22;4563;54.756;9.400;2022-12-07T01:48:30;4.20;75.60
9057;DHT22;4563;54.756;9.400;2022-12-07T01:51:01;4.20;75.50
9057;DHT22;4563;54.756;9.400;2022-12-07T01:53:31;4.20;75.50
9057;DHT22;4563;54.756;9.400;2022-12-07T01:55:59;4.10;75.40
9057;DHT22;4563;54.756;9.400;2022-12-07T01:58:26;4.10;75.40
9057;DHT22;4563;54.756;9.400;2022-12-07T02:00:53;4.10;75.40
9057;DHT22;4563;54.756;9.400;2022-12-07T02:03:24;4.10;75.40
9057;DHT22;4563;54.756;9.400;2022-12-07T02:05:53;4.10;75.40
9057;DHT22;4563;54.756;9.400;2022-12-07T02:08:21;4.10;75.40
9057;DHT22;4563;54.756;9.400;2022-12-07T02:10:48;4.00;75.30
9057;DHT22;4563;54.756;9.400;2022-12-07T02:13:16;4.10;75.40
9057;DHT22;4563;54.756;9.400;2022-12-07T02:15:59;4.00;75.40
9057;DHT22;4563;54.756;9.400;2022-12-07T02:18:38;4.00;75.40
9057;DHT22;4563;54.756;9.400;2022-12-07T02:21:13;4.00;75.40
9057;DHT22;4563;54.756;9.400;2022-12-07T02:23:58;4.00;75.50
9057;DHT22;4563;54.756;9.400;2022-12-07T02:29:33;4.00;75.50
9057;DHT22;4563;54.756;9.400;2022-12-07T02:32:06;3.90;75.50
9057;DHT22;4563;54.756;9.400;2022-12-07T02:34:39;3.90;76.20
9057;DHT22;4563;54.756;9.400;2022-12-07T02:37:13;3.90;75.50
9057;DHT22;4563;54.756;9.400;2022-12-07T02:39:45;3.90;75.50
9057;DHT22;4563;54.756;9.400;2022-12-07T02:42:15;3.90;75.50
9057;DHT22;4563;54.756;9.400;2022-12-07T02:44:46;3.80;75.40
9057;DHT22;4563;54.756;9.400;2022-12-07T02:47:15;3.80;75.40
9057;DHT22;4563;54.756;9.400;2022-12-07T02:49:44;3.80;76.10
9057;DHT22;4563;54.756;9.400;2022-12-07T02:52:11;3.70;75.40
9057;DHT22;4563;54.756;9.400;2022-12-07T02:54:38;3.80;75.40
9057;DHT22;4563;54.756;9.400;2022-12-07T02:57:14;3.70;75.40
9057;DHT22;4563;54.756;9.400;2022-12-07T03:00:00;3.70;75.40
9057;DHT22;4563;54.756;9.400;2022-12-07T03:02:36;3.70;75.50
9057;DHT22;4563;54.756;9.400;2022-12-07T03:05:17;3.60;75.40
9057;DHT22;4563;54.756;9.400;2022-12-07T03:07:51;3.60;75.50
9057;DHT22;4563;54.756;9.400;2022-12-07T03:10:25;3.70;75.50
9057;DHT22;4563;54.756;9.400;2022-12-07T03:13:02;3.60;75.40
9057;DHT22;4563;54.756;9.400;2022-12-07T03:15:36;3.60;75.50
9057;DHT22;4563;54.756;9.400;2022-12-07T03:18:07;3.60;75.40
9057;DHT22;4563;54.756;9.400;2022-12-07T03:20:37;3.60;75.40
9057;DHT22;4563;54.756;9.400;2022-12-07T03:23:08;3.60;75.50
9057;DHT22;4563;54.756;9.400;2022-12-07T03:25:39;3.60;75.50
9057;DHT22;4563;54.756;9.400;2022-12-07T03:28:08;3.50;75.40
9057;DHT22;4563;54.756;9.400;2022-12-07T03:30:42;3.60;75.50
9057;DHT22;4563;54.756;9.400;2022-12-07T03:33:12;3.60;75.50
9057;DHT22;4563;54.756;9.400;2022-12-07T03:35:43;3.60;75.50
9057;DHT22;4563;54.756;9.400;2022-12-07T03:38:15;3.50;75.40
9057;DHT22;4563;54.756;9.400;2022-12-07T03:40:47;3.50;75.40
9057;DHT22;4563;54.756;9.400;2022-12-07T03:43:16;3.50;75.40
9057;DHT22;4563;54.756;9.400;2022-12-07T03:45:53;3.50;75.40
9057;DHT22;4563;54.756;9.400;2022-12-07T03:48:26;3.50;75.40
9057;DHT22;4563;54.756;9.400;2022-12-07T03:51:00;3.40;75.30
9057;DHT22;4563;54.756;9.400;2022-12-07T03:53:33;3.40;75.40
9057;DHT22;4563;54.756;9.400;2022-12-07T03:56:02;3.50;75.50
9057;DHT22;4563;54.756;9.400;2022-12-07T03:58:30;3.40;75.40
9057;DHT22;4563;54.756;9.400;2022-12-07T04:00:59;3.40;75.40
9057;DHT22;4563;54.756;9.400;2022-12-07T04:03:26;3.40;75.40
9057;DHT22;4563;54.756;9.400;2022-12-07T04:05:53;3.40;75.30
9057;DHT22;4563;54.756;9.400;2022-12-07T04:08:19;3.40;75.30
9057;DHT22;4563;54.756;9.400;2022-12-07T04:10:46;3.40;75.30
9057;DHT22;4563;54.756;9.400;2022-12-07T04:13:13;3.40;75.30
9057;DHT22;4563;54.756;9.400;2022-12-07T04:15:40;3.40;75.40
9057;DHT22;4563;54.756;9.400;2022-12-07T04:18:08;3.40;75.40
9057;DHT22;4563;54.756;9.400;2022-12-07T04:20:35;3.40;75.40
9057;DHT22;4563;54.756;9.400;2022-12-07T04:23:02;3.40;75.30
9057;DHT22;4563;54.756;9.400;2022-12-07T04:25:28;3.30;75.30
9057;DHT22;4563;54.756;9.400;2022-12-07T04:27:55;3.30;75.30
9057;DHT22;4563;54.756;9.400;2022-12-07T04:30:22;3.40;75.40
9057;DHT22;4563;54.756;9.400;2022-12-07T04:32:49;3.40;75.40
9057;DHT22;4563;54.756;9.400;2022-12-07T04:35:18;3.30;75.30
9057;DHT22;4563;54.756;9.400;2022-12-07T04:37:44;3.30;75.20
9057;DHT22;4563;54.756;9.400;2022-12-07T04:40:11;3.30;76.00
9057;DHT22;4563;54.756;9.400;2022-12-07T04:42:40;3.30;76.00
9057;DHT22;4563;54.756;9.400;2022-12-07T04:45:07;3.30;75.30
9057;DHT22;4563;54.756;9.400;2022-12-07T04:47:34;3.30;75.30
9057;DHT22;4563;54.756;9.400;2022-12-07T04:50:01;3.30;75.30
9057;DHT22;4563;54.756;9.400;2022-12-07T04:52:29;3.30;75.30
9057;DHT22;4563;54.756;9.400;2022-12-07T04:54:56;3.30;75.30
9057;DHT22;4563;54.756;9.400;2022-12-07T04:57:23;3.30;75.30
9057;DHT22;4563;54.756;9.400;2022-12-07T04:59:50;3.30;75.30
9057;DHT22;4563;54.756;9.400;2022-12-07T05:02:17;3.30;75.30
9057;DHT22;4563;54.756;9.400;2022-12-07T05:04:43;3.30;75.30
9057;DHT22;4563;54.756;9.400;2022-12-07T05:07:10;3.40;75.40
9057;DHT22;4563;54.756;9.400;2022-12-07T05:09:39;3.40;75.40
9057;DHT22;4563;54.756;9.400;2022-12-07T05:12:05;3.40;75.40
9057;DHT22;4563;54.756;9.400;2022-12-07T05:14:32;3.40;75.40
9057;DHT22;4563;54.756;9.400;2022-12-07T05:16:59;3.30;75.30
9057;DHT22;4563;54.756;9.400;2022-12-07T05:19:26;3.40;75.40
9057;DHT22;4563;54.756;9.400;2022-12-07T05:21:52;3.40;75.40
9057;DHT22;4563;54.756;9.400;2022-12-07T05:24:19;3.40;75.40
9057;DHT22;4563;54.756;9.400;2022-12-07T05:26:47;3.40;75.50
9057;DHT22;4563;54.756;9.400;2022-12-07T05:29:16;3.40;75.40
9057;DHT22;4563;54.756;9.400;2022-12-07T05:31:44;3.40;75.50
9057;DHT22;4563;54.756;9.400;2022-12-07T05:34:11;3.40;75.50
9057;DHT22;4563;54.756;9.400;2022-12-07T05:36:38;3.40;75.60
9057;DHT22;4563;54.756;9.400;2022-12-07T05:39:05;3.40;75.50
9057;DHT22;4563;54.756;9.400;2022-12-07T05:41:32;3.50;75.60
9057;DHT22;4563;54.756;9.400;2022-12-07T05:44:18;3.40;75.60
9057;DHT22;4563;54.756;9.400;2022-12-07T05:46:45;3.40;75.50
9057;DHT22;4563;54.756;9.400;2022-12-07T05:49:12;3.40;75.50
9057;DHT22;4563;54.756;9.400;2022-12-07T05:51:38;3.40;75.50
9057;DHT22;4563;54.756;9.400;2022-12-07T05:54:05;3.50;75.60
9057;DHT22;4563;54.756;9.400;2022-12-07T05:56:32;3.40;75.50
9057;DHT22;4563;54.756;9.400;2022-12-07T05:58:59;3.40;75.50
9057;DHT22;4563;54.756;9.400;2022-12-07T06:01:44;3.50;75.60
9057;DHT22;4563;54.756;9.400;2022-12-07T06:04:11;3.50;75.60
9057;DHT22;4563;54.756;9.400;2022-12-07T06:06:38;3.40;75.60
9057;DHT22;4563;54.756;9.400;2022-12-07T06:09:05;3.50;75.60
9057;DHT22;4563;54.756;9.400;2022-12-07T06:11:32;3.40;75.50
9057;DHT22;4563;54.756;9.400;2022-12-07T06:14:16;3.40;75.50
9057;DHT22;4563;54.756;9.400;2022-12-07T06:16:45;3.40;75.60
9057;DHT22;4563;54.756;9.400;2022-12-07T06:19:11;3.40;75.50
9057;DHT22;4563;54.756;9.400;2022-12-07T06:21:38;3.40;75.50
9057;DHT22;4563;54.756;9.400;2022-12-07T06:24:05;3.40;75.50
9057;DHT22;4563;54.756;9.400;2022-12-07T06:26:33;3.40;75.50
9057;DHT22;4563;54.756;9.400;2022-12-07T06:28:59;3.40;75.50
9057;DHT22;4563;54.756;9.400;2022-12-07T06:31:26;3.40;75.50
9057;DHT22;4563;54.756;9.400;2022-12-07T06:33:58;3.40;75.60
9057;DHT22;4563;54.756;9.400;2022-12-07T06:36:25;3.40;75.60
9057;DHT22;4563;54.756;9.400;2022-12-07T06:38:52;3.40;75.50
9057;DHT22;4563;54.756;9.400;2022-12-07T06:41:19;3.40;75.50
9057;DHT22;4563;54.756;9.400;2022-12-07T06:43:46;3.40;75.50
9057;DHT22;4563;54.756;9.400;2022-12-07T06:46:13;3.40;75.50
9057;DHT22;4563;54.756;9.400;2022-12-07T06:48:40;3.40;75.50
9057;DHT22;4563;54.756;9.400;2022-12-07T06:51:09;3.40;75.50
9057;DHT22;4563;54.756;9.400;2022-12-07T06:53:36;3.40;75.50
9057;DHT22;4563;54.756;9.400;2022-12-07T06:56:05;3.40;75.50
9057;DHT22;4563;54.756;9.400;2022-12-07T07:10:29;3.30;75.10
9057;DHT22;4563;54.756;9.400;2022-12-07T07:12:56;3.30;75.40
9057;DHT22;4563;54.756;9.400;2022-12-07T07:15:23;3.30;75.40
9057;DHT22;4563;54.756;9.400;2022-12-07T07:17:50;3.30;75.40
9057;DHT22;4563;54.756;9.400;2022-12-07T07:20:17;3.30;75.40
9057;DHT22;4563;54.756;9.400;2022-12-07T07:22:44;3.30;75.40
9057;DHT22;4563;54.756;9.400;2022-12-07T07:25:11;3.30;75.40
9057;DHT22;4563;54.756;9.400;2022-12-07T07:27:40;3.30;75.40
9057;DHT22;4563;54.756;9.400;2022-12-07T07:30:08;3.30;75.40
9057;DHT22;4563;54.756;9.400;2022-12-07T07:32:35;3.30;75.40
9057;DHT22;4563;54.756;9.400;2022-12-07T07:35:02;3.30;75.50
9057;DHT22;4563;54.756;9.400;2022-12-07T07:37:29;3.30;75.50
9057;DHT22;4563;54.756;9.400;2022-12-07T07:39:56;3.30;75.40
9057;DHT22;4563;54.756;9.400;2022-12-07T07:42:23;3.30;75.40
9057;DHT22;4563;54.756;9.400;2022-12-07T07:44:51;3.30;75.50
9057;DHT22;4563;54.756;9.400;2022-12-07T07:47:18;3.30;75.50
9057;DHT22;4563;54.756;9.400;2022-12-07T07:49:45;3.30;75.50
9057;DHT22;4563;54.756;9.400;2022-12-07T07:52:12;3.30;75.40
9057;DHT22;4563;54.756;9.400;2022-12-07T07:54:39;3.30;75.40
9057;DHT22;4563;54.756;9.400;2022-12-07T07:57:05;3.30;75.50
9057;DHT22;4563;54.756;9.400;2022-12-07T07:59:32;3.30;75.50
9057;DHT22;4563;54.756;9.400;2022-12-07T08:02:00;3.30;75.40
9057;DHT22;4563;54.756;9.400;2022-12-07T08:04:27;3.30;75.40
9057;DHT22;4563;54.756;9.400;2022-12-07T08:06:54;3.30;75.50
9057;DHT22;4563;54.756;9.400;2022-12-07T08:09:21;3.30;75.50
9057;DHT22;4563;54.756;9.400;2022-12-07T08:11:48;3.30;75.40
9057;DHT22;4563;54.756;9.400;2022-12-07T08:14:14;3.30;75.40
9057;DHT22;4563;54.756;9.400;2022-12-07T08:16:41;3.30;75.40
9057;DHT22;4563;54.756;9.400;2022-12-07T08:19:09;3.30;75.50
9057;DHT22;4563;54.756;9.400;2022-12-07T08:21:37;3.30;75.50
9057;DHT22;4563;54.756;9.400;2022-12-07T08:24:04;3.30;75.50
9057;DHT22;4563;54.756;9.400;2022-12-07T08:26:31;3.30;75.50
9057;DHT22;4563;54.756;9.400;2022-12-07T08:28:59;3.30;75.50
9057;DHT22;4563;54.756;9.400;2022-12-07T08:31:26;3.30;75.50
9057;DHT22;4563;54.756;9.400;2022-12-07T08:33:53;3.30;75.50
9057;DHT22;4563;54.756;9.400;2022-12-07T08:36:21;3.30;75.50
9057;DHT22;4563;54.756;9.400;2022-12-07T08:38:49;3.40;75.60
9057;DHT22;4563;54.756;9.400;2022-12-07T08:41:17;3.30;75.50
9057;DHT22;4563;54.756;9.400;2022-12-07T08:43:44;3.30;75.50
9057;DHT22;4563;54.756;9.400;2022-12-07T08:46:14;3.40;75.60
9057;DHT22;4563;54.756;9.400;2022-12-07T08:48:46;3.40;75.60
9057;DHT22;4563;54.756;9.400;2022-12-07T08:51:13;3.40;75.60
9057;DHT22;4563;54.756;9.400;2022-12-07T08:53:42;3.40;75.60
9057;DHT22;4563;54.756;9.400;2022-12-07T08:56:10;3.40;75.60
9057;DHT22;4563;54.756;9.400;2022-12-07T08:58:38;3.50;75.70
9057;DHT22;4563;54.756;9.400;2022-12-07T09:01:05;3.40;75.60
9057;DHT22;4563;54.756;9.400;2022-12-07T09:03:32;3.50;75.60
9057;DHT22;4563;54.756;9.400;2022-12-07T09:05:59;3.50;75.60
9057;DHT22;4563;54.756;9.400;2022-12-07T09:08:33;3.50;75.60
9057;DHT22;4563;54.756;9.400;2022-12-07T09:11:16;3.50;75.50
9057;DHT22;4563;54.756;9.400;2022-12-07T09:13:43;3.60;75.70
9057;DHT22;4563;54.756;9.400;2022-12-07T09:16:10;3.60;75.70
9057;DHT22;4563;54.756;9.400;2022-12-07T09:18:36;3.60;75.60
9057;DHT22;4563;54.756;9.400;2022-12-07T09:21:04;3.60;75.60
9057;DHT22;4563;54.756;9.400;2022-12-07T09:23:30;3.60;75.60
9057;DHT22;4563;54.756;9.400;2022-12-07T09:25:59;3.60;75.50
9057;DHT22;4563;54.756;9.400;2022-12-07T09:28:27;3.70;75.70
9057;DHT22;4563;54.756;9.400;2022-12-07T09:30:54;3.70;75.60
9057;DHT22;4563;54.756;9.400;2022-12-07T09:33:21;3.70;75.60
9057;DHT22;4563;54.756;9.400;2022-12-07T09:35:50;3.70;75.60
9057;DHT22;4563;54.756;9.400;2022-12-07T09:38:18;3.70;75.60
9057;DHT22;4563;54.756;9.400;2022-12-07T09:40:46;3.70;75.60
9057;DHT22;4563;54.756;9.400;2022-12-07T09:43:14;3.80;75.70
9057;DHT22;4563;54.756;9.400;2022-12-07T09:45:44;3.80;75.60
9057;DHT22;4563;54.756;9.400;2022-12-07T09:48:17;3.80;75.60
9057;DHT22;4563;54.756;9.400;2022-12-07T09:50:45;3.80;75.60
9057;DHT22;4563;54.756;9.400;2022-12-07T09:53:24;3.90;75.70
9057;DHT22;4563;54.756;9.400;2022-12-07T09:55:52;3.90;75.60
9057;DHT22;4563;54.756;9.400;2022-12-07T09:58:22;3.90;75.60
9057;DHT22;4563;54.756;9.400;2022-12-07T10:00:54;3.90;75.50
9057;DHT22;4563;54.756;9.400;2022-12-07T10:03:22;3.90;75.50
9057;DHT22;4563;54.756;9.400;2022-12-07T10:05:50;3.90;75.50
9057;DHT22;4563;54.756;9.400;2022-12-07T10:08:18;4.00;75.50
9057;DHT22;4563;54.756;9.400;2022-12-07T10:10:46;4.00;75.50
9057;DHT22;4563;54.756;9.400;2022-12-07T10:13:19;4.00;75.40
9057;DHT22;4563;54.756;9.400;2022-12-07T10:15:49;4.00;75.40
9057;DHT22;4563;54.756;9.400;2022-12-07T10:18:28;4.00;75.40
9057;DHT22;4563;54.756;9.400;2022-12-07T10:21:10;4.10;75.40
9057;DHT22;4563;54.756;9.400;2022-12-07T10:23:40;4.10;75.50
9057;DHT22;4563;54.756;9.400;2022-12-07T10:26:26;4.10;75.40
9057;DHT22;4563;54.756;9.400;2022-12-07T10:28:53;4.10;75.30
9057;DHT22;4563;54.756;9.400;2022-12-07T10:31:22;4.10;75.30
9057;DHT22;4563;54.756;9.400;2022-12-07T10:33:52;4.20;75.40
9057;DHT22;4563;54.756;9.400;2022-12-07T10:36:23;4.20;75.30
9057;DHT22;4563;54.756;9.400;2022-12-07T10:38:52;4.20;75.30
9057;DHT22;4563;54.756;9.400;2022-12-07T10:41:19;4.20;75.30
9057;DHT22;4563;54.756;9.400;2022-12-07T10:43:50;4.20;75.20
9057;DHT22;4563;54.756;9.400;2022-12-07T10:46:37;4.30;75.20
9057;DHT22;4563;54.756;9.400;2022-12-07T10:49:29;4.30;75.30
9057;DHT22;4563;54.756;9.400;2022-12-07T10:52:09;4.30;75.30
9057;DHT22;4563;54.756;9.400;2022-12-07T10:54:43;4.30;75.30
9057;DHT22;4563;54.756;9.400;2022-12-07T10:57:22;4.30;75.20
9057;DHT22;4563;54.756;9.400;2022-12-07T11:00:04;4.40;75.30
9057;DHT22;4563;54.756;9.400;2022-12-07T11:02:43;4.40;75.30
9057;DHT22;4563;54.756;9.400;2022-12-07T11:05:22;4.40;75.20
9057;DHT22;4563;54.756;9.400;2022-12-07T11:07:59;4.40;75.20
9057;DHT22;4563;54.756;9.400;2022-12-07T11:10:36;4.40;75.10
9057;DHT22;4563;54.756;9.400;2022-12-07T11:13:22;4.40;75.10
9057;DHT22;4563;54.756;9.400;2022-12-07T11:16:00;4.50;75.20
9057;DHT22;4563;54.756;9.400;2022-12-07T11:18:32;4.50;75.10
9057;DHT22;4563;54.756;9.400;2022-12-07T11:21:09;4.50;75.10
9057;DHT22;4563;54.756;9.400;2022-12-07T11:23:46;4.50;75.10
9057;DHT22;4563;54.756;9.400;2022-12-07T11:26:22;4.50;75.00
9057;DHT22;4563;54.756;9.400;2022-12-07T11:29:04;4.50;75.00
9057;DHT22;4563;54.756;9.400;2022-12-07T11:31:37;4.50;75.10
9057;DHT22;4563;54.756;9.400;2022-12-07T11:34:11;4.50;75.00
9057;DHT22;4563;54.756;9.400;2022-12-07T11:36:43;4.50;74.90
9057;DHT22;4563;54.756;9.400;2022-12-07T11:39:26;4.60;74.90
9057;DHT22;4563;54.756;9.400;2022-12-07T11:42:01;4.60;75.00
9057;DHT22;4563;54.756;9.400;2022-12-07T11:44:34;4.60;74.90
9057;DHT22;4563;54.756;9.400;2022-12-07T11:47:08;4.60;74.90
9057;DHT22;4563;54.756;9.400;2022-12-07T11:49:42;4.60;74.90
9057;DHT22;4563;54.756;9.400;2022-12-07T11:52:18;4.60;74.70
9057;DHT22;4563;54.756;9.400;2022-12-07T11:54:49;4.60;74.70
9057;DHT22;4563;54.756;9.400;2022-12-07T11:57:24;4.60;74.70
9057;DHT22;4563;54.756;9.400;2022-12-07T11:59:58;4.70;74.80
9057;DHT22;4563;54.756;9.400;2022-12-07T12:02:31;4.70;74.80
9057;DHT22;4563;54.756;9.400;2022-12-07T12:05:04;4.70;74.80
9057;DHT22;4563;54.756;9.400;2022-12-07T12:07:36;4.70;74.80
9057;DHT22;4563;54.756;9.400;2022-12-07T12:10:07;4.70;74.70
9057;DHT22;4563;54.756;9.400;2022-12-07T12:15:58;4.60;74.70
9057;DHT22;4563;54.756;9.400;2022-12-07T12:18:45;4.60;74.70
9057;DHT22;4563;54.756;9.400;2022-12-07T12:21:20;4.70;74.80
9057;DHT22;4563;54.756;9.400;2022-12-07T12:23:56;4.70;74.70
9057;DHT22;4563;54.756;9.400;2022-12-07T12:26:25;4.70;74.70
9057;DHT22;4563;54.756;9.400;2022-12-07T12:28:56;4.60;74.50
9057;DHT22;4563;54.756;9.400;2022-12-07T12:31:38;4.60;74.50
9057;DHT22;4563;54.756;9.400;2022-12-07T12:34:29;4.70;74.60
9057;DHT22;4563;54.756;9.400;2022-12-07T12:36:56;4.60;74.60
9057;DHT22;4563;54.756;9.400;2022-12-07T12:39:25;4.60;74.50
9057;DHT22;4563;54.756;9.400;2022-12-07T12:41:59;4.60;74.40
9057;DHT22;4563;54.756;9.400;2022-12-07T12:45:17;4.60;74.50
9057;DHT22;4563;54.756;9.400;2022-12-07T12:47:55;4.60;74.70
9057;DHT22;4563;54.756;9.400;2022-12-07T12:50:28;4.60;74.70
9057;DHT22;4563;54.756;9.400;2022-12-07T12:53:02;4.60;74.60
9057;DHT22;4563;54.756;9.400;2022-12-07T12:56:01;4.60;74.60
9057;DHT22;4563;54.756;9.400;2022-12-07T12:58:37;4.60;74.60
9057;DHT22;4563;54.756;9.400;2022-12-07T13:04:36;4.60;74.70
9057;DHT22;4563;54.756;9.400;2022-12-07T13:07:08;4.60;74.70
9057;DHT22;4563;54.756;9.400;2022-12-07T13:09:42;4.60;74.70
9057;DHT22;4563;54.756;9.400;2022-12-07T13:12:14;4.60;74.60
9057;DHT22;4563;54.756;9.400;2022-12-07T13:14:55;4.60;74.60
9057;DHT22;4563;54.756;9.400;2022-12-07T13:18:00;4.60;74.60
9057;DHT22;4563;54.756;9.400;2022-12-07T13:20:51;4.60;74.60
9057;DHT22;4563;54.756;9.400;2022-12-07T13:23:24;4.60;74.70
9057;DHT22;4563;54.756;9.400;2022-12-07T13:25:55;4.60;74.70
9057;DHT22;4563;54.756;9.400;2022-12-07T13:28:33;4.60;74.60
9057;DHT22;4563;54.756;9.400;2022-12-07T13:31:20;4.60;74.60
9057;DHT22;4563;54.756;9.400;2022-12-07T13:33:49;4.60;74.70
9057;DHT22;4563;54.756;9.400;2022-12-07T13:36:21;4.60;74.60
9057;DHT22;4563;54.756;9.400;2022-12-07T13:38:54;4.60;74.50
9057;DHT22;4563;54.756;9.400;2022-12-07T13:41:22;4.60;74.50
9057;DHT22;4563;54.756;9.400;2022-12-07T13:43:54;4.60;74.40
9057;DHT22;4563;54.756;9.400;2022-12-07T13:46:31;4.60;74.30
9057;DHT22;4563;54.756;9.400;2022-12-07T13:49:00;4.60;74.30
9057;DHT22;4563;54.756;9.400;2022-12-07T13:51:29;4.60;74.40
9057;DHT22;4563;54.756;9.400;2022-12-07T13:54:07;4.60;74.30
9057;DHT22;4563;54.756;9.400;2022-12-07T13:56:35;4.60;74.30
9057;DHT22;4563;54.756;9.400;2022-12-07T13:59:05;4.60;74.30
9057;DHT22;4563;54.756;9.400;2022-12-07T14:01:37;4.60;74.30
9057;DHT22;4563;54.756;9.400;2022-12-07T14:04:18;4.60;74.30
9057;DHT22;4563;54.756;9.400;2022-12-07T14:06:49;4.60;74.30
9057;DHT22;4563;54.756;9.400;2022-12-07T14:09:18;4.60;74.20
9057;DHT22;4563;54.756;9.400;2022-12-07T14:11:47;4.60;74.20
9057;DHT22;4563;54.756;9.400;2022-12-07T14:14:17;4.60;74.20
9057;DHT22;4563;54.756;9.400;2022-12-07T14:16:58;4.60;74.20
9057;DHT22;4563;54.756;9.400;2022-12-07T14:19:49;4.60;74.20
9057;DHT22;4563;54.756;9.400;2022-12-07T14:22:26;4.60;74.30
9057;DHT22;4563;54.756;9.400;2022-12-07T14:25:19;4.60;74.30
9057;DHT22;4563;54.756;9.400;2022-12-07T14:27:51;4.60;74.20
9057;DHT22;4563;54.756;9.400;2022-12-07T14:30:20;4.60;74.20
9057;DHT22;4563;54.756;9.400;2022-12-07T14:32:54;4.60;74.20
9057;DHT22;4563;54.756;9.400;2022-12-07T14:35:21;4.60;74.30
9057;DHT22;4563;54.756;9.400;2022-12-07T14:37:48;4.60;74.20
9057;DHT22;4563;54.756;9.400;2022-12-07T14:40:18;4.60;74.20
9057;DHT22;4563;54.756;9.400;2022-12-07T14:42:47;4.60;74.20
9057;DHT22;4563;54.756;9.400;2022-12-07T14:45:16;4.60;74.20
9057;DHT22;4563;54.756;9.400;2022-12-07T14:47:45;4.60;74.20
9057;DHT22;4563;54.756;9.400;2022-12-07T14:50:13;4.60;74.10
9057;DHT22;4563;54.756;9.400;2022-12-07T14:55:59;4.60;74.20
9057;DHT22;4563;54.756;9.400;2022-12-07T14:58:55;4.50;74.10
9057;DHT22;4563;54.756;9.400;2022-12-07T15:01:37;4.60;74.30
9057;DHT22;4563;54.756;9.400;2022-12-07T15:04:08;4.60;74.20
9057;DHT22;4563;54.756;9.400;2022-12-07T15:06:34;4.50;74.10
9057;DHT22;4563;54.756;9.400;2022-12-07T15:09:02;4.50;74.10
9057;DHT22;4563;54.756;9.400;2022-12-07T15:11:29;4.50;74.10
9057;DHT22;4563;54.756;9.400;2022-12-07T15:13:56;4.50;74.10
9057;DHT22;4563;54.756;9.400;2022-12-07T15:16:37;4.50;74.10
9057;DHT22;4563;54.756;9.400;2022-12-07T15:19:05;4.50;74.10
9057;DHT22;4563;54.756;9.400;2022-12-07T15:21:33;4.50;74.10
9057;DHT22;4563;54.756;9.400;2022-12-07T15:24:00;4.50;74.10
9057;DHT22;4563;54.756;9.400;2022-12-07T15:26:27;4.50;74.10
9057;DHT22;4563;54.756;9.400;2022-12-07T15:28:54;4.50;74.10
9057;DHT22;4563;54.756;9.400;2022-12-07T15:31:21;4.50;74.10
9057;DHT22;4563;54.756;9.400;2022-12-07T15:33:47;4.50;74.10
9057;DHT22;4563;54.756;9.400;2022-12-07T15:36:19;4.40;74.00
9057;DHT22;4563;54.756;9.400;2022-12-07T15:38:48;4.40;74.00
9057;DHT22;4563;54.756;9.400;2022-12-07T15:41:16;4.40;74.00
9057;DHT22;4563;54.756;9.400;2022-12-07T15:43:43;4.40;74.00
9057;DHT22;4563;54.756;9.400;2022-12-07T15:46:29;4.40;74.00
9057;DHT22;4563;54.756;9.400;2022-12-07T15:48:57;4.30;73.90
9057;DHT22;4563;54.756;9.400;2022-12-07T15:51:24;4.30;74.00
9057;DHT22;4563;54.756;9.400;2022-12-07T15:53:52;4.30;74.00
9057;DHT22;4563;54.756;9.400;2022-12-07T15:56:19;4.30;73.90
9057;DHT22;4563;54.756;9.400;2022-12-07T15:58:46;4.30;74.00
9057;DHT22;4563;54.756;9.400;2022-12-07T16:01:15;4.20;73.80
9057;DHT22;4563;54.756;9.400;2022-12-07T16:03:42;4.20;73.90
9057;DHT22;4563;54.756;9.400;2022-12-07T16:06:09;4.20;73.90
9057;DHT22;4563;54.756;9.400;2022-12-07T16:08:36;4.20;74.00
9057;DHT22;4563;54.756;9.400;2022-12-07T16:11:06;4.10;73.80
9057;DHT22;4563;54.756;9.400;2022-12-07T16:13:33;4.10;73.80
9057;DHT22;4563;54.756;9.400;2022-12-07T16:16:03;4.10;73.90
9057;DHT22;4563;54.756;9.400;2022-12-07T16:18:30;4.00;73.80
9057;DHT22;4563;54.756;9.400;2022-12-07T16:20:57;4.00;73.90
9057;DHT22;4563;54.756;9.400;2022-12-07T16:23:24;4.00;73.90
9057;DHT22;4563;54.756;9.400;2022-12-07T16:25:50;4.00;73.90
9057;DHT22;4563;54.756;9.400;2022-12-07T16:28:19;3.90;73.90
9057;DHT22;4563;54.756;9.400;2022-12-07T16:30:46;3.90;73.90
9057;DHT22;4563;54.756;9.400;2022-12-07T16:33:13;3.90;74.00
9057;DHT22;4563;54.756;9.400;2022-12-07T16:35:42;3.90;74.00
9057;DHT22;4563;54.756;9.400;2022-12-07T16:38:09;3.80;73.90
9057;DHT22;4563;54.756;9.400;2022-12-07T16:40:36;3.80;73.90
9057;DHT22;4563;54.756;9.400;2022-12-07T16:43:03;3.80;73.90
9057;DHT22;4563;54.756;9.400;2022-12-07T16:45:31;3.80;74.00
9057;DHT22;4563;54.756;9.400;2022-12-07T16:47:58;3.70;73.80
9057;DHT22;4563;54.756;9.400;2022-12-07T16:50:25;3.70;73.90
9057;DHT22;4563;54.756;9.400;2022-12-07T16:52:51;3.70;73.90
9057;DHT22;4563;54.756;9.400;2022-12-07T16:55:18;3.70;73.90
9057;DHT22;4563;54.756;9.400;2022-12-07T16:57:45;3.70;73.90
9057;DHT22;4563;54.756;9.400;2022-12-07T17:00:13;3.70;73.90
9057;DHT22;4563;54.756;9.400;2022-12-07T17:02:41;3.70;73.90